sensor_id;sensor_type;location;lat;lon;timestamp;pressure;altitude;pressure_sealevel;temperature;humidity
53550;BME280;67273;52.914;-0.982;2023-04-28T00:00:16;100559.38;;;18.21;44.24
53550;BME280;67273;52.914;-0.982;2023-04-28T00:02:42;100558.56;;;18.21;44.29
53550;BME280;67273;52.914;-0.982;2023-04-28T00:05:08;100551.47;;;18.20;44.39
53550;BME280;67273;52.914;-0.982;2023-04-28T00:07:35;100550.41;;;18.21;44.26
53550;BME280;67273;52.914;-0.982;2023-04-28T00:10:02;100551.47;;;18.20;44.17
53550;BME280;67273;52.914;-0.982;2023-04-28T00:12:27;100538.91;;;18.19;44.33
53550;BME280;67273;52.914;-0.982;2023-04-28T00:14:53;100536.19;;;18.19;44.20
53550;BME280;67273;52.914;-0.982;2023-04-28T00:17:19;100538.09;;;18.18;44.29
53550;BME280;67273;52.914;-0.982;2023-04-28T00:19:45;100529.13;;;18.18;44.26
53550;BME280;67273;52.914;-0.982;2023-04-28T00:22:10;100526.41;;;18.18;44.08
53550;BME280;67273;52.914;-0.982;2023-04-28T00:24:38;100518.25;;;18.18;44.22
53550;BME280;67273;52.914;-0.982;2023-04-28T00:27:03;100513.84;;;18.17;44.20
53550;BME280;67273;52.914;-0.982;2023-04-28T00:29:29;100509.22;;;18.17;44.17
53550;BME280;67273;52.914;-0.982;2023-04-28T00:31:55;100500.50;;;18.15;44.15
53550;BME280;67273;52.914;-0.982;2023-04-28T00:34:21;100498.63;;;18.16;44.31
53550;BME280;67273;52.914;-0.982;2023-04-28T00:36:47;100495.06;;;18.15;44.22
53550;BME280;67273;52.914;-0.982;2023-04-28T00:39:13;100490.47;;;18.16;44.31
53550;BME280;67273;52.914;-0.982;2023-04-28T00:41:41;100483.38;;;18.15;44.09
53550;BME280;67273;52.914;-0.982;2023-04-28T00:44:07;100478.75;;;18.15;44.23
53550;BME280;67273;52.914;-0.982;2023-04-28T00:46:33;100481.69;;;18.14;44.29
53550;BME280;67273;52.914;-0.982;2023-04-28T00:48:59;100481.69;;;18.14;44.33
53550;BME280;67273;52.914;-0.982;2023-04-28T00:51:24;100492.56;;;18.14;44.41
53550;BME280;67273;52.914;-0.982;2023-04-28T00:53:52;100487.13;;;18.14;44.11
53550;BME280;67273;52.914;-0.982;2023-04-28T00:56:18;100480.88;;;18.13;44.29
53550;BME280;67273;52.914;-0.982;2023-04-28T00:58:46;100476.75;;;18.11;44.25
53550;BME280;67273;52.914;-0.982;2023-04-28T01:01:12;100476.75;;;18.11;44.36
53550;BME280;67273;52.914;-0.982;2023-04-28T01:03:39;100470.25;;;18.12;43.96
53550;BME280;67273;52.914;-0.982;2023-04-28T01:06:06;100463.16;;;18.11;44.15
53550;BME280;67273;52.914;-0.982;2023-04-28T01:08:35;100464.22;;;18.10;44.19
53550;BME280;67273;52.914;-0.982;2023-04-28T01:11:03;100460.44;;;18.11;43.93
53550;BME280;67273;52.914;-0.982;2023-04-28T01:13:53;100456.06;;;18.10;44.15
53550;BME280;67273;52.914;-0.982;2023-04-28T01:16:20;100453.34;;;18.10;44.28
53550;BME280;67273;52.914;-0.982;2023-04-28T01:18:46;100446.28;;;18.09;44.12
53550;BME280;67273;52.914;-0.982;2023-04-28T01:21:13;100450.88;;;18.08;44.29
53550;BME280;67273;52.914;-0.982;2023-04-28T01:23:38;100455.25;;;18.09;44.00
53550;BME280;67273;52.914;-0.982;2023-04-28T01:26:06;100454.44;;;18.09;44.17
53550;BME280;67273;52.914;-0.982;2023-04-28T01:28:32;100450.06;;;18.08;44.25
53550;BME280;67273;52.914;-0.982;2023-04-28T01:30:58;100450.88;;;18.08;44.29
53550;BME280;67273;52.914;-0.982;2023-04-28T01:33:24;100444.63;;;18.08;44.19
53550;BME280;67273;52.914;-0.982;2023-04-28T01:35:49;100437.50;;;18.07;44.17
53550;BME280;67273;52.914;-0.982;2023-04-28T01:38:15;100441.06;;;18.07;44.18
53550;BME280;67273;52.914;-0.982;2023-04-28T01:40:41;100437.50;;;18.07;44.23
53550;BME280;67273;52.914;-0.982;2023-04-28T01:43:08;100442.13;;;18.06;44.17
53550;BME280;67273;52.914;-0.982;2023-04-28T01:45:36;100439.41;;;18.06;44.14
53550;BME280;67273;52.914;-0.982;2023-04-28T01:48:03;100442.38;;;18.04;44.21
53550;BME280;67273;52.914;-0.982;2023-04-28T01:50:31;100442.38;;;18.04;44.33
53550;BME280;67273;52.914;-0.982;2023-04-28T01:52:57;100446.75;;;18.05;44.14
53550;BME280;67273;52.914;-0.982;2023-04-28T01:55:23;100428.78;;;18.04;44.18
53550;BME280;67273;52.914;-0.982;2023-04-28T01:57:49;100438.00;;;18.03;44.26
53550;BME280;67273;52.914;-0.982;2023-04-28T02:00:18;100424.41;;;18.03;44.19
53550;BME280;67273;52.914;-0.982;2023-04-28T02:02:52;100438.00;;;18.03;44.32
53550;BME280;67273;52.914;-0.982;2023-04-28T02:05:18;100440.72;;;18.03;44.19
53550;BME280;67273;52.914;-0.982;2023-04-28T02:07:46;100439.06;;;18.02;44.11
53550;BME280;67273;52.914;-0.982;2023-04-28T02:10:12;100437.16;;;18.03;44.16
53550;BME280;67273;52.914;-0.982;2023-04-28T02:12:38;100426.28;;;18.03;44.10
53550;BME280;67273;52.914;-0.982;2023-04-28T02:15:07;100423.84;;;18.01;44.01
53550;BME280;67273;52.914;-0.982;2023-04-28T02:17:34;100424.66;;;18.02;44.13
53550;BME280;67273;52.914;-0.982;2023-04-28T02:20:00;100426.56;;;18.01;44.14
53550;BME280;67273;52.914;-0.982;2023-04-28T02:22:26;100429.28;;;18.01;44.08
53550;BME280;67273;52.914;-0.982;2023-04-28T02:24:51;100427.38;;;18.02;44.11
53550;BME280;67273;52.914;-0.982;2023-04-28T02:27:17;100433.88;;;18.01;44.02
53550;BME280;67273;52.914;-0.982;2023-04-28T02:29:43;100433.88;;;18.01;44.11
53550;BME280;67273;52.914;-0.982;2023-04-28T02:32:09;100426.56;;;18.01;44.13
53550;BME280;67273;52.914;-0.982;2023-04-28T02:34:36;100425.72;;;18.01;44.05
53550;BME280;67273;52.914;-0.982;2023-04-28T02:37:01;100418.41;;;18.01;44.03
53550;BME280;67273;52.914;-0.982;2023-04-28T02:39:27;100405.88;;;18.00;44.02
53550;BME280;67273;52.914;-0.982;2023-04-28T02:41:56;100404.19;;;17.99;44.05
53550;BME280;67273;52.914;-0.982;2023-04-28T02:44:22;100387.06;;;17.99;44.09
53550;BME280;67273;52.914;-0.982;2023-04-28T02:46:47;100387.06;;;17.99;43.96
53550;BME280;67273;52.914;-0.982;2023-04-28T02:49:13;100401.47;;;17.99;43.98
53550;BME280;67273;52.914;-0.982;2023-04-28T02:51:41;100397.94;;;17.99;43.94
53550;BME280;67273;52.914;-0.982;2023-04-28T02:54:06;100410.72;;;17.98;44.01
53550;BME280;67273;52.914;-0.982;2023-04-28T02:56:32;100404.19;;;17.99;43.92
53550;BME280;67273;52.914;-0.982;2023-04-28T02:58:59;100406.34;;;17.97;44.11
53550;BME280;67273;52.914;-0.982;2023-04-28T03:01:25;100420.78;;;17.98;43.97
53550;BME280;67273;52.914;-0.982;2023-04-28T03:03:51;100417.22;;;17.97;43.89
53550;BME280;67273;52.914;-0.982;2023-04-28T03:06:16;100417.22;;;17.97;43.92
53550;BME280;67273;52.914;-0.982;2023-04-28T03:08:43;100418.28;;;17.96;43.95
53550;BME280;67273;52.914;-0.982;2023-04-28T03:11:10;100414.50;;;17.97;43.88
53550;BME280;67273;52.914;-0.982;2023-04-28T03:13:36;100419.94;;;17.97;43.96
53550;BME280;67273;52.914;-0.982;2023-04-28T03:16:02;100415.56;;;17.96;44.06
53550;BME280;67273;52.914;-0.982;2023-04-28T03:18:28;100420.16;;;17.96;43.83
53550;BME280;67273;52.914;-0.982;2023-04-28T03:20:54;100410.63;;;17.93;44.03
53550;BME280;67273;52.914;-0.982;2023-04-28T03:23:20;100419.34;;;17.95;43.96
53550;BME280;67273;52.914;-0.982;2023-04-28T03:25:47;100412.25;;;17.94;43.85
53550;BME280;67273;52.914;-0.982;2023-04-28T03:28:13;100411.44;;;17.94;43.97
53550;BME280;67273;52.914;-0.982;2023-04-28T03:30:39;100401.38;;;17.94;44.00
53550;BME280;67273;52.914;-0.982;2023-04-28T03:33:04;100405.19;;;17.93;44.00
53550;BME280;67273;52.914;-0.982;2023-04-28T03:35:31;100399.75;;;17.93;43.87
53550;BME280;67273;52.914;-0.982;2023-04-28T03:37:57;100400.56;;;17.94;44.01
53550;BME280;67273;52.914;-0.982;2023-04-28T03:40:23;100387.22;;;17.92;43.94
53550;BME280;67273;52.914;-0.982;2023-04-28T03:43:29;100400.78;;;17.92;43.91
53550;BME280;67273;52.914;-0.982;2023-04-28T03:46:08;100397.03;;;17.93;43.84
53550;BME280;67273;52.914;-0.982;2023-04-28T03:48:34;100403.50;;;17.92;43.95
53550;BME280;67273;52.914;-0.982;2023-04-28T03:51:00;100398.06;;;17.92;44.02
53550;BME280;67273;52.914;-0.982;2023-04-28T03:53:26;100391.00;;;17.91;43.89
53550;BME280;67273;52.914;-0.982;2023-04-28T03:55:52;100391.00;;;17.91;43.84
53550;BME280;67273;52.914;-0.982;2023-04-28T03:58:18;100391.00;;;17.91;44.02
53550;BME280;67273;52.914;-0.982;2023-04-28T04:00:45;100385.56;;;17.91;43.85
53550;BME280;67273;52.914;-0.982;2023-04-28T04:03:11;100397.25;;;17.92;43.78
53550;BME280;67273;52.914;-0.982;2023-04-28T04:05:38;100391.00;;;17.91;44.14
53550;BME280;67273;52.914;-0.982;2023-04-28T04:08:04;100392.88;;;17.91;43.94
53550;BME280;67273;52.914;-0.982;2023-04-28T04:10:30;100398.31;;;17.91;43.79
53550;BME280;67273;52.914;-0.982;2023-04-28T04:12:56;100390.16;;;17.91;43.66
53550;BME280;67273;52.914;-0.982;2023-04-28T04:15:22;100388.28;;;17.91;43.91
53550;BME280;67273;52.914;-0.982;2023-04-28T04:17:49;100390.16;;;17.91;43.88
53550;BME280;67273;52.914;-0.982;2023-04-28T04:20:15;100392.06;;;17.90;43.82
53550;BME280;67273;52.914;-0.982;2023-04-28T04:22:41;100393.16;;;17.89;43.91
53550;BME280;67273;52.914;-0.982;2023-04-28T04:25:07;100393.16;;;17.89;43.98
53550;BME280;67273;52.914;-0.982;2023-04-28T04:27:34;100398.59;;;17.89;43.78
53550;BME280;67273;52.914;-0.982;2023-04-28T04:30:00;100392.06;;;17.90;43.79
53550;BME280;67273;52.914;-0.982;2023-04-28T04:32:26;100387.72;;;17.89;43.90
53550;BME280;67273;52.914;-0.982;2023-04-28T04:34:53;100396.91;;;17.88;43.86
53550;BME280;67273;52.914;-0.982;2023-04-28T04:37:19;100394.19;;;17.88;43.97
53550;BME280;67273;52.914;-0.982;2023-04-28T04:39:58;100391.47;;;17.88;43.85
53550;BME280;67273;52.914;-0.982;2023-04-28T04:42:24;100396.91;;;17.88;43.98
53550;BME280;67273;52.914;-0.982;2023-04-28T04:45:10;100400.69;;;17.87;43.92
53550;BME280;67273;52.914;-0.982;2023-04-28T04:47:36;100389.81;;;17.87;43.80
53550;BME280;67273;52.914;-0.982;2023-04-28T04:50:04;100403.41;;;17.87;43.96
53550;BME280;67273;52.914;-0.982;2023-04-28T04:52:30;100400.69;;;17.87;43.84
53550;BME280;67273;52.914;-0.982;2023-04-28T04:54:56;100404.50;;;17.86;44.00
53550;BME280;67273;52.914;-0.982;2023-04-28T04:57:23;100405.31;;;17.86;43.97
53550;BME280;67273;52.914;-0.982;2023-04-28T05:00:13;100399.06;;;17.86;43.86
53550;BME280;67273;52.914;-0.982;2023-04-28T05:02:42;100407.22;;;17.86;43.97
53550;BME280;67273;52.914;-0.982;2023-04-28T05:05:09;100409.91;;;17.86;43.95
53550;BME280;67273;52.914;-0.982;2023-04-28T05:07:36;100413.66;;;17.85;43.85
53550;BME280;67273;52.914;-0.982;2023-04-28T05:10:02;100415.38;;;17.86;43.81
53550;BME280;67273;52.914;-0.982;2023-04-28T05:12:29;100413.66;;;17.85;43.80
53550;BME280;67273;52.914;-0.982;2023-04-28T05:14:55;100421.00;;;17.84;43.85
53550;BME280;67273;52.914;-0.982;2023-04-28T05:17:21;100414.53;;;17.85;43.92
53550;BME280;67273;52.914;-0.982;2023-04-28T05:19:46;100418.28;;;17.84;43.82
53550;BME280;67273;52.914;-0.982;2023-04-28T05:22:14;100412.84;;;17.84;43.92
53550;BME280;67273;52.914;-0.982;2023-04-28T05:24:40;100420.19;;;17.84;43.80
53550;BME280;67273;52.914;-0.982;2023-04-28T05:27:06;100414.75;;;17.84;44.01
53550;BME280;67273;52.914;-0.982;2023-04-28T05:29:33;100417.47;;;17.84;43.93
53550;BME280;67273;52.914;-0.982;2023-04-28T05:31:59;100422.06;;;17.83;43.87
53550;BME280;67273;52.914;-0.982;2023-04-28T05:34:25;100417.47;;;17.84;43.89
53550;BME280;67273;52.914;-0.982;2023-04-28T05:36:51;100422.44;;;17.87;43.84
53550;BME280;67273;52.914;-0.982;2023-04-28T05:39:20;100423.38;;;17.93;43.70
53550;BME280;67273;52.914;-0.982;2023-04-28T05:41:45;100432.22;;;18.00;43.68
53550;BME280;67273;52.914;-0.982;2023-04-28T05:44:11;100428.88;;;18.10;43.39
53550;BME280;67273;52.914;-0.982;2023-04-28T05:46:38;100436.78;;;18.23;43.30
53550;BME280;67273;52.914;-0.982;2023-04-28T05:49:04;100436.47;;;18.36;42.87
53550;BME280;67273;52.914;-0.982;2023-04-28T05:51:34;100433.94;;;18.47;42.91
53550;BME280;67273;52.914;-0.982;2023-04-28T05:54:00;100436.88;;;18.57;42.73
53550;BME280;67273;52.914;-0.982;2023-04-28T05:56:29;100432.59;;;18.61;42.69
53550;BME280;67273;52.914;-0.982;2023-04-28T05:58:56;100432.91;;;18.65;42.60
53550;BME280;67273;52.914;-0.982;2023-04-28T06:01:23;100435.97;;;18.68;42.70
53550;BME280;67273;52.914;-0.982;2023-04-28T06:03:48;100435.72;;;18.70;42.31
53550;BME280;67273;52.914;-0.982;2023-04-28T06:06:14;100435.25;;;18.73;42.48
53550;BME280;67273;52.914;-0.982;2023-04-28T06:08:42;100437.47;;;18.76;42.76
53550;BME280;67273;52.914;-0.982;2023-04-28T06:11:07;100440.78;;;18.78;42.63
53550;BME280;67273;52.914;-0.982;2023-04-28T06:13:35;100443.22;;;18.79;42.72
53550;BME280;67273;52.914;-0.982;2023-04-28T06:16:02;100441.38;;;18.80;42.53
53550;BME280;67273;52.914;-0.982;2023-04-28T06:18:28;100445.28;;;18.84;43.57
53550;BME280;67273;52.914;-0.982;2023-04-28T06:20:57;100450.47;;;18.86;44.09
53550;BME280;67273;52.914;-0.982;2023-04-28T06:23:22;100449.47;;;18.92;45.15
53550;BME280;67273;52.914;-0.982;2023-04-28T06:25:49;100465.47;;;18.88;44.95
53550;BME280;67273;52.914;-0.982;2023-04-28T06:28:15;100463.59;;;18.89;44.68
53550;BME280;67273;52.914;-0.982;2023-04-28T06:30:42;100470.91;;;18.88;44.62
53550;BME280;67273;52.914;-0.982;2023-04-28T06:33:07;100471.75;;;18.89;44.39
53550;BME280;67273;52.914;-0.982;2023-04-28T06:35:33;100473.41;;;18.90;44.30
53550;BME280;67273;52.914;-0.982;2023-04-28T06:38:00;100470.69;;;18.90;44.10
53550;BME280;67273;52.914;-0.982;2023-04-28T06:40:26;100467.94;;;18.90;44.12
53550;BME280;67273;52.914;-0.982;2023-04-28T06:42:56;100476.13;;;18.90;43.87
53550;BME280;67273;52.914;-0.982;2023-04-28T06:45:46;100476.69;;;18.92;44.02
53550;BME280;67273;52.914;-0.982;2023-04-28T06:48:11;100475.16;;;18.96;45.51
53550;BME280;67273;52.914;-0.982;2023-04-28T06:50:37;100477.88;;;18.96;46.71
53550;BME280;67273;52.914;-0.982;2023-04-28T06:53:05;100478.44;;;18.98;47.48
53550;BME280;67273;52.914;-0.982;2023-04-28T06:55:32;100484.94;;;18.97;47.90
53550;BME280;67273;52.914;-0.982;2023-04-28T06:57:58;100478.44;;;18.98;48.42
53550;BME280;67273;52.914;-0.982;2023-04-28T07:00:24;100485.63;;;19.04;48.44
53550;BME280;67273;52.914;-0.982;2023-04-28T07:02:52;100489.44;;;19.03;47.96
53550;BME280;67273;52.914;-0.982;2023-04-28T07:05:17;100486.72;;;19.03;47.99
53550;BME280;67273;52.914;-0.982;2023-04-28T07:07:44;100487.53;;;19.04;47.82
53550;BME280;67273;52.914;-0.982;2023-04-28T07:10:10;100490.91;;;19.11;47.71
53550;BME280;67273;52.914;-0.982;2023-04-28T07:12:36;100488.19;;;19.11;47.30
53550;BME280;67273;52.914;-0.982;2023-04-28T07:15:01;100495.53;;;19.10;46.98
53550;BME280;67273;52.914;-0.982;2023-04-28T07:17:27;100499.91;;;19.11;46.63
53550;BME280;67273;52.914;-0.982;2023-04-28T07:19:54;100501.00;;;19.10;46.43
53550;BME280;67273;52.914;-0.982;2023-04-28T07:22:20;100506.44;;;19.10;46.11
53550;BME280;67273;52.914;-0.982;2023-04-28T07:24:46;100511.88;;;19.10;45.98
53550;BME280;67273;52.914;-0.982;2023-04-28T07:27:12;100506.19;;;19.12;45.64
53550;BME280;67273;52.914;-0.982;2023-04-28T07:29:37;100517.34;;;19.10;45.65
53550;BME280;67273;52.914;-0.982;2023-04-28T07:32:03;100511.06;;;19.10;45.39
53550;BME280;67273;52.914;-0.982;2023-04-28T07:34:30;100515.66;;;19.09;45.37
53550;BME280;67273;52.914;-0.982;2023-04-28T07:36:57;100526.56;;;19.09;45.11
53550;BME280;67273;52.914;-0.982;2023-04-28T07:39:23;100523.03;;;19.09;45.04
53550;BME280;67273;52.914;-0.982;2023-04-28T07:41:48;100531.19;;;19.09;45.07
53550;BME280;67273;52.914;-0.982;2023-04-28T07:44:14;100535.81;;;19.08;44.88
53550;BME280;67273;52.914;-0.982;2023-04-28T07:46:40;100532.84;;;19.10;44.81
53550;BME280;67273;52.914;-0.982;2023-04-28T07:49:06;100539.59;;;19.07;44.71
53550;BME280;67273;52.914;-0.982;2023-04-28T07:51:32;100540.41;;;19.08;44.54
53550;BME280;67273;52.914;-0.982;2023-04-28T07:54:00;100545.84;;;19.08;44.64
53550;BME280;67273;52.914;-0.982;2023-04-28T07:56:25;100552.41;;;19.07;44.49
53550;BME280;67273;52.914;-0.982;2023-04-28T07:58:51;100552.41;;;19.07;44.51
53550;BME280;67273;52.914;-0.982;2023-04-28T08:01:17;100559.75;;;19.06;44.48
53550;BME280;67273;52.914;-0.982;2023-04-28T08:03:43;100560.56;;;19.07;44.45
53550;BME280;67273;52.914;-0.982;2023-04-28T08:06:09;100565.19;;;19.06;44.31
53550;BME280;67273;52.914;-0.982;2023-04-28T08:08:35;100561.38;;;19.07;44.24
53550;BME280;67273;52.914;-0.982;2023-04-28T08:11:02;100561.38;;;19.07;44.22
53550;BME280;67273;52.914;-0.982;2023-04-28T08:13:27;100572.84;;;19.09;44.02
53550;BME280;67273;52.914;-0.982;2023-04-28T08:15:54;100579.38;;;19.08;44.06
53550;BME280;67273;52.914;-0.982;2023-04-28T08:18:24;100577.47;;;19.09;44.17
53550;BME280;67273;52.914;-0.982;2023-04-28T08:20:51;100584.31;;;19.11;44.38
53550;BME280;67273;52.914;-0.982;2023-04-28T08:23:16;100588.94;;;19.11;44.38
53550;BME280;67273;52.914;-0.982;2023-04-28T08:25:42;100598.22;;;19.10;44.24
53550;BME280;67273;52.914;-0.982;2023-04-28T08:28:09;100601.16;;;19.08;44.32
53550;BME280;67273;52.914;-0.982;2023-04-28T08:30:35;100599.50;;;19.07;44.16
53550;BME280;67273;52.914;-0.982;2023-04-28T08:33:03;100597.34;;;19.09;44.38
53550;BME280;67273;52.914;-0.982;2023-04-28T08:35:29;100602.44;;;19.17;44.30
53550;BME280;67273;52.914;-0.982;2023-04-28T08:37:54;100603.81;;;19.20;44.67
53550;BME280;67273;52.914;-0.982;2023-04-28T08:40:21;100604.41;;;19.22;44.90
53550;BME280;67273;52.914;-0.982;2023-04-28T08:42:49;100617.06;;;19.28;45.10
53550;BME280;67273;52.914;-0.982;2023-04-28T08:45:16;100614.09;;;19.30;45.13
53550;BME280;67273;52.914;-0.982;2023-04-28T08:47:42;100614.91;;;19.30;45.34
53550;BME280;67273;52.914;-0.982;2023-04-28T08:50:13;100615.72;;;19.31;45.40
53550;BME280;67273;52.914;-0.982;2023-04-28T08:52:41;100614.09;;;19.30;45.45
53550;BME280;67273;52.914;-0.982;2023-04-28T08:55:09;100617.72;;;19.35;45.54
53550;BME280;67273;52.914;-0.982;2023-04-28T08:57:38;100615.00;;;19.35;45.46
53550;BME280;67273;52.914;-0.982;2023-04-28T09:00:05;100620.44;;;19.35;45.46
53550;BME280;67273;52.914;-0.982;2023-04-28T09:02:32;100627.28;;;19.38;45.58
53550;BME280;67273;52.914;-0.982;2023-04-28T09:04:58;100628.97;;;19.39;45.52
53550;BME280;67273;52.914;-0.982;2023-04-28T09:07:23;100625.19;;;19.40;45.58
53550;BME280;67273;52.914;-0.982;2023-04-28T09:09:49;100635.56;;;19.43;45.62
53550;BME280;67273;52.914;-0.982;2023-04-28T09:12:17;100640.78;;;19.45;45.50
53550;BME280;67273;52.914;-0.982;2023-04-28T09:14:42;100644.31;;;19.45;45.63
53550;BME280;67273;52.914;-0.982;2023-04-28T09:17:09;100645.50;;;19.49;45.94
53550;BME280;67273;52.914;-0.982;2023-04-28T09:19:39;100645.50;;;19.49;46.06
53550;BME280;67273;52.914;-0.982;2023-04-28T09:22:07;100651.75;;;19.50;46.16
53550;BME280;67273;52.914;-0.982;2023-04-28T09:24:34;100654.25;;;19.51;45.94
53550;BME280;67273;52.914;-0.982;2023-04-28T09:27:01;100655.91;;;19.52;45.89
53550;BME280;67273;52.914;-0.982;2023-04-28T09:29:29;100657.56;;;19.53;45.82
53550;BME280;67273;52.914;-0.982;2023-04-28T09:32:11;100667.97;;;19.56;45.86
53550;BME280;67273;52.914;-0.982;2023-04-28T09:34:43;100666.88;;;19.57;45.73
53550;BME280;67273;52.914;-0.982;2023-04-28T09:37:14;100677.31;;;19.61;45.73
53550;BME280;67273;52.914;-0.982;2023-04-28T09:39:40;100680.03;;;19.61;45.71
53550;BME280;67273;52.914;-0.982;2023-04-28T09:42:06;100681.69;;;19.62;45.83
53550;BME280;67273;52.914;-0.982;2023-04-28T09:44:31;100682.50;;;19.62;45.64
53550;BME280;67273;52.914;-0.982;2023-04-28T09:46:57;100685.81;;;19.64;45.80
53550;BME280;67273;52.914;-0.982;2023-04-28T09:49:23;100691.72;;;19.44;47.04
53550;BME280;67273;52.914;-0.982;2023-04-28T09:51:50;100697.78;;;19.34;47.46
53550;BME280;67273;52.914;-0.982;2023-04-28T09:54:16;100696.84;;;19.41;47.68
53550;BME280;67273;52.914;-0.982;2023-04-28T09:56:46;100698.91;;;19.50;47.87
53550;BME280;67273;52.914;-0.982;2023-04-28T09:59:12;100694.66;;;19.54;47.96
53550;BME280;67273;52.914;-0.982;2023-04-28T10:01:39;100703.97;;;19.59;47.63
53550;BME280;67273;52.914;-0.982;2023-04-28T10:04:06;100707.28;;;19.61;47.78
53550;BME280;67273;52.914;-0.982;2023-04-28T10:06:33;100711.44;;;19.63;47.44
53550;BME280;67273;52.914;-0.982;2023-04-28T10:09:02;100711.16;;;19.65;47.33
53550;BME280;67273;52.914;-0.982;2023-04-28T10:11:28;100713.06;;;19.64;47.01
53550;BME280;67273;52.914;-0.982;2023-04-28T10:13:55;100717.81;;;19.69;46.99
53550;BME280;67273;52.914;-0.982;2023-04-28T10:16:21;100719.44;;;19.70;47.04
53550;BME280;67273;52.914;-0.982;2023-04-28T10:18:48;100720.03;;;19.72;47.28
53550;BME280;67273;52.914;-0.982;2023-04-28T10:21:17;100723.38;;;19.74;47.24
53550;BME280;67273;52.914;-0.982;2023-04-28T10:24:15;100722.53;;;19.73;46.97
53550;BME280;67273;52.914;-0.982;2023-04-28T10:27:03;100735.91;;;19.75;47.01
53550;BME280;67273;52.914;-0.982;2023-04-28T10:29:31;100731.91;;;19.78;47.18
53550;BME280;67273;52.914;-0.982;2023-04-28T10:32:16;100737.09;;;19.79;46.93
53550;BME280;67273;52.914;-0.982;2023-04-28T10:34:43;100738.75;;;19.80;46.82
53550;BME280;67273;52.914;-0.982;2023-04-28T10:37:09;100738.75;;;19.80;46.92
53550;BME280;67273;52.914;-0.982;2023-04-28T10:39:36;100749.16;;;19.83;46.69
53550;BME280;67273;52.914;-0.982;2023-04-28T10:42:03;100749.78;;;19.73;47.13
53550;BME280;67273;52.914;-0.982;2023-04-28T10:44:41;100753.47;;;19.79;47.31
53550;BME280;67273;52.914;-0.982;2023-04-28T10:47:08;100749.16;;;19.83;47.21
53550;BME280;67273;52.914;-0.982;2023-04-28T10:50:08;100754.13;;;19.86;47.21
53550;BME280;67273;52.914;-0.982;2023-04-28T10:52:50;100761.22;;;19.87;47.13
53550;BME280;67273;52.914;-0.982;2023-04-28T10:55:27;100763.72;;;19.89;46.93
53550;BME280;67273;52.914;-0.982;2023-04-28T10:58:30;100769.50;;;19.92;46.92
53550;BME280;67273;52.914;-0.982;2023-04-28T11:01:23;100771.16;;;19.93;46.73
53550;BME280;67273;52.914;-0.982;2023-04-28T11:03:50;100779.09;;;19.95;46.67
53550;BME280;67273;52.914;-0.982;2023-04-28T11:06:19;100778.56;;;19.81;46.49
53550;BME280;67273;52.914;-0.982;2023-04-28T11:08:47;100773.16;;;19.29;48.18
53550;BME280;67273;52.914;-0.982;2023-04-28T11:11:16;100775.50;;;19.37;48.90
53550;BME280;67273;52.914;-0.982;2023-04-28T11:13:42;100776.78;;;19.46;48.30
53550;BME280;67273;52.914;-0.982;2023-04-28T11:16:13;100784.56;;;19.54;48.64
53550;BME280;67273;52.914;-0.982;2023-04-28T11:18:48;100785.59;;;19.65;48.47
53550;BME280;67273;52.914;-0.982;2023-04-28T11:21:18;100777.28;;;19.72;48.29
53550;BME280;67273;52.914;-0.982;2023-04-28T11:23:46;100794.25;;;19.74;47.81
53550;BME280;67273;52.914;-0.982;2023-04-28T11:26:12;100793.16;;;19.75;47.51
53550;BME280;67273;52.914;-0.982;2023-04-28T11:28:47;100801.34;;;19.75;47.55
53550;BME280;67273;52.914;-0.982;2023-04-28T11:31:14;100798.63;;;19.75;46.90
53550;BME280;67273;52.914;-0.982;2023-04-28T11:33:51;100804.06;;;19.75;46.69
53550;BME280;67273;52.914;-0.982;2023-04-28T11:36:26;100806.78;;;19.75;46.51
53550;BME280;67273;52.914;-0.982;2023-04-28T11:38:52;100807.66;;;19.75;46.40
53550;BME280;67273;52.914;-0.982;2023-04-28T11:41:18;100812.25;;;19.75;46.12
53550;BME280;67273;52.914;-0.982;2023-04-28T11:43:44;100817.69;;;19.75;45.97
53550;BME280;67273;52.914;-0.982;2023-04-28T11:46:15;100819.59;;;19.74;45.82
53550;BME280;67273;52.914;-0.982;2023-04-28T11:48:41;100819.59;;;19.74;45.63
53550;BME280;67273;52.914;-0.982;2023-04-28T11:51:07;100826.84;;;19.69;46.31
53550;BME280;67273;52.914;-0.982;2023-04-28T11:53:43;100816.25;;;19.84;46.61
53550;BME280;67273;52.914;-0.982;2023-04-28T11:56:09;100824.84;;;19.93;46.46
53550;BME280;67273;52.914;-0.982;2023-04-28T11:58:35;100827.44;;;20.00;46.25
53550;BME280;67273;52.914;-0.982;2023-04-28T12:01:07;100838.44;;;20.05;46.19
53550;BME280;67273;52.914;-0.982;2023-04-28T12:03:42;100829.28;;;20.11;46.22
53550;BME280;67273;52.914;-0.982;2023-04-28T12:06:08;100841.13;;;20.17;46.12
53550;BME280;67273;52.914;-0.982;2023-04-28T12:08:34;100846.94;;;20.20;45.77
53550;BME280;67273;52.914;-0.982;2023-04-28T12:11:06;100853.06;;;20.27;45.53
53550;BME280;67273;52.914;-0.982;2023-04-28T12:13:35;100855.28;;;20.30;45.50
53550;BME280;67273;52.914;-0.982;2023-04-28T12:16:01;100858.09;;;20.36;45.54
53550;BME280;67273;52.914;-0.982;2023-04-28T12:18:28;100869.09;;;20.41;45.52
53550;BME280;67273;52.914;-0.982;2023-04-28T12:20:55;100868.63;;;20.44;45.34
53550;BME280;67273;52.914;-0.982;2023-04-28T12:23:28;100871.19;;;20.50;45.07
53550;BME280;67273;52.914;-0.982;2023-04-28T12:25:54;100869.63;;;20.55;45.29
53550;BME280;67273;52.914;-0.982;2023-04-28T12:28:20;100874.97;;;20.61;44.61
53550;BME280;67273;52.914;-0.982;2023-04-28T12:30:45;100875.28;;;20.65;44.84
53550;BME280;67273;52.914;-0.982;2023-04-28T12:33:21;100876.69;;;20.67;45.08
53550;BME280;67273;52.914;-0.982;2023-04-28T12:35:48;100876.09;;;20.65;44.95
53550;BME280;67273;52.914;-0.982;2023-04-28T12:38:15;100888.59;;;20.61;44.95
53550;BME280;67273;52.914;-0.982;2023-04-28T12:40:41;100895.72;;;20.62;44.73
53550;BME280;67273;52.914;-0.982;2023-04-28T12:43:07;100899.88;;;20.53;46.51